KDAL/DAL METAR and TAF weather

Enter ICAO airport designator
Station Type Date Time Source
KDAL METAR 2018/10/22 15:53 UTC NOAA

KDAL 221553Z 18007KT 10SM FEW150 OVC250 15/08 A3025 RMK AO2 SLP240 T01500078


Station Type Date Time Source
KDAL Decoded METAR 2018/10/22 15:53 UTC NOAA

DALLAS LOVE FIELD, TX, United States (KDAL) 32-51N 096-51W 158M
Oct 22, 2018 - 11:53 AM EDT / 2018.10.22 1553 UTC
Wind: from the S (180 degrees) at 8 MPH (7 KT):0
Visibility: 10 mile(s):0
Sky conditions: overcast
Temperature: 59.0 F (15.0 C)
Dew Point: 46.0 F (7.8 C)
Relative Humidity: 62%
Pressure (altimeter): 30.25 in. Hg (1024 hPa)
ob: KDAL 221553Z 18007KT 10SM FEW150 OVC250 15/08 A3025 RMK AO2 SLP240 T01500078
cycle: 16

Station Type Date Time Source
KDAL TAF 2018/10/22 15:54 UTC NOAA

TAF
AMD KDAL 221451Z 2215/2312 15005KT P6SM SCT150 OVC250
FM230700 12006KT P6SM VCSH BKN100


Example: see airport list